createdAt,value
2022-12-27T00:01:23.247Z,2.55
2022-12-27T00:03:49.929Z,2.28
2022-12-27T00:06:22.024Z,2.92
2022-12-27T00:08:49.475Z,2.83
2022-12-27T00:11:18.948Z,2.90
2022-12-27T00:13:46.320Z,2.10
2022-12-27T00:16:16.829Z,3.08
2022-12-27T00:18:44.016Z,3.63
2022-12-27T00:21:13.252Z,3.83
2022-12-27T00:23:43.042Z,2.50
2022-12-27T00:26:15.783Z,3.22
2022-12-27T00:28:43.403Z,3.20
2022-12-27T00:31:10.931Z,3.47
2022-12-27T00:33:39.837Z,3.55
2022-12-27T00:36:08.943Z,3.40
2022-12-27T00:38:35.919Z,3.13
2022-12-27T00:41:03.347Z,3.85
2022-12-27T00:43:30.362Z,3.17
2022-12-27T00:45:57.534Z,3.47
2022-12-27T00:48:25.036Z,3.00
2022-12-27T00:50:58.645Z,3.30
2022-12-27T00:53:26.968Z,3.55
2022-12-27T00:55:53.816Z,3.83
2022-12-27T00:58:21.070Z,3.17
2022-12-27T01:00:48.850Z,3.90
2022-12-27T01:03:17.001Z,4.10
2022-12-27T01:05:44.386Z,4.00
2022-12-27T01:08:11.586Z,4.20
2022-12-27T01:10:40.778Z,4.07
2022-12-27T01:13:08.067Z,3.92
2022-12-27T01:15:35.169Z,4.00
2022-12-27T01:18:01.838Z,4.30
2022-12-27T01:20:28.541Z,3.88
2022-12-27T01:22:55.217Z,3.83
2022-12-27T01:25:22.105Z,4.38
2022-12-27T01:27:48.809Z,4.60
2022-12-27T01:30:15.613Z,3.45
2022-12-27T01:32:42.401Z,5.22
2022-12-27T01:35:09.347Z,4.10
2022-12-27T01:37:36.057Z,4.53
2022-12-27T01:40:02.938Z,4.88
2022-12-27T01:42:48.588Z,4.55
2022-12-27T01:45:31.913Z,4.95
2022-12-27T01:48:18.954Z,4.60
2022-12-27T01:50:51.000Z,4.60
2022-12-27T01:53:29.696Z,3.97
2022-12-27T01:56:05.695Z,4.53
2022-12-27T01:58:52.798Z,5.07
2022-12-27T02:01:23.657Z,4.82
2022-12-27T02:04:23.015Z,4.25
2022-12-27T02:06:51.890Z,4.10
2022-12-27T02:09:42.447Z,4.10
2022-12-27T02:12:10.519Z,4.53
2022-12-27T02:14:49.117Z,4.22
2022-12-27T02:17:20.710Z,4.10
2022-12-27T02:20:12.241Z,4.47
2022-12-27T02:23:33.453Z,5.10
2022-12-27T02:26:29.454Z,5.03
2022-12-27T02:29:04.035Z,5.35
2022-12-27T02:31:40.953Z,4.60
2022-12-27T02:34:17.105Z,5.63
2022-12-27T02:36:46.424Z,4.50
2022-12-27T02:39:15.974Z,4.97
2022-12-27T02:42:03.766Z,5.50
2022-12-27T02:44:49.311Z,5.18
2022-12-27T02:47:41.925Z,4.97
2022-12-27T02:50:31.213Z,4.30
2022-12-27T02:53:33.575Z,4.80
2022-12-27T02:56:44.495Z,5.37
2022-12-27T02:59:38.468Z,4.47
2022-12-27T03:02:43.611Z,4.68
2022-12-27T03:05:29.071Z,4.63
2022-12-27T03:08:01.621Z,4.72
2022-12-27T03:14:01.203Z,4.07
2022-12-27T03:16:57.528Z,4.57
2022-12-27T03:19:51.208Z,4.03
2022-12-27T03:22:39.048Z,4.18
2022-12-27T03:25:24.455Z,4.30
2022-12-27T03:28:12.125Z,4.03
2022-12-27T03:30:59.148Z,4.53
2022-12-27T03:33:29.608Z,4.57
2022-12-27T03:36:21.932Z,6.05
2022-12-27T03:39:20.285Z,3.97
2022-12-27T03:42:11.621Z,4.30
2022-12-27T03:44:39.227Z,4.20
2022-12-27T03:47:16.323Z,4.53
2022-12-27T03:50:06.500Z,4.88
2022-12-27T03:52:45.632Z,3.97
2022-12-27T03:55:12.853Z,4.55
2022-12-27T03:57:40.235Z,4.82
2022-12-27T04:00:07.873Z,3.95
2022-12-27T04:02:40.241Z,4.63
2022-12-27T04:05:07.615Z,3.97
2022-12-27T04:07:34.571Z,3.88
2022-12-27T04:10:20.003Z,3.83
2022-12-27T04:13:05.595Z,3.00
2022-12-27T04:15:50.749Z,3.22
2022-12-27T04:18:36.283Z,2.75
2022-12-27T04:21:21.883Z,3.08
2022-12-27T04:24:07.355Z,3.35
2022-12-27T04:26:52.688Z,3.45
2022-12-27T04:29:38.032Z,3.10
2022-12-27T04:32:23.489Z,4.35
2022-12-27T04:34:50.172Z,3.72
2022-12-27T04:37:19.120Z,3.80
2022-12-27T04:40:10.010Z,4.07
2022-12-27T04:42:55.307Z,4.32
2022-12-27T04:45:41.135Z,4.35
2022-12-27T04:48:32.459Z,4.60
2022-12-27T04:51:19.005Z,4.75
2022-12-27T04:54:04.399Z,4.50
2022-12-27T04:56:31.126Z,5.00
2022-12-27T04:59:16.451Z,4.75
2022-12-27T05:02:01.912Z,4.90
2022-12-27T05:04:29.255Z,4.38
2022-12-27T05:06:56.896Z,4.82
2022-12-27T05:09:42.562Z,4.78
2022-12-27T05:12:31.149Z,5.25
2022-12-27T05:14:57.796Z,4.85
2022-12-27T05:17:24.455Z,5.28
2022-12-27T05:19:51.151Z,5.10
2022-12-27T05:22:36.831Z,4.95
2022-12-27T05:25:22.194Z,5.18
2022-12-27T05:27:48.867Z,5.03
2022-12-27T05:30:15.642Z,5.80
2022-12-27T05:32:42.309Z,4.90
2022-12-27T05:35:09.266Z,4.65
2022-12-27T05:37:35.979Z,4.60
2022-12-27T05:40:02.937Z,5.70
2022-12-27T05:42:29.579Z,4.60
2022-12-27T05:44:56.315Z,5.75
2022-12-27T05:47:22.981Z,5.70
2022-12-27T05:49:49.652Z,5.32
2022-12-27T05:52:16.318Z,5.05
2022-12-27T05:54:42.975Z,4.95
2022-12-27T05:57:09.617Z,6.15
2022-12-27T05:59:36.389Z,5.40
2022-12-27T06:02:03.219Z,4.75
2022-12-27T06:04:30.080Z,5.38
2022-12-27T06:06:56.890Z,5.88
2022-12-27T06:09:23.639Z,5.20
2022-12-27T06:11:51.671Z,4.72
2022-12-27T06:14:18.462Z,6.18
2022-12-27T06:16:45.156Z,4.93
2022-12-27T06:19:11.847Z,4.97
2022-12-27T06:21:38.633Z,5.20
2022-12-27T06:24:05.667Z,6.05
2022-12-27T06:26:33.087Z,4.63
2022-12-27T06:29:00.056Z,6.05
2022-12-27T06:31:27.093Z,5.80
2022-12-27T06:33:54.834Z,4.93
2022-12-27T06:36:26.351Z,4.72
2022-12-27T06:38:53.391Z,5.38
2022-12-27T06:41:20.079Z,4.72
2022-12-27T06:43:47.348Z,4.80
2022-12-27T06:46:18.478Z,4.95
2022-12-27T06:48:47.035Z,6.45
2022-12-27T06:51:15.894Z,6.43
2022-12-27T06:53:46.054Z,4.43
2022-12-27T06:56:18.610Z,4.55
2022-12-27T07:01:13.209Z,4.28
2022-12-27T07:03:40.505Z,4.53
2022-12-27T07:06:11.414Z,5.45
2022-12-27T07:08:39.068Z,5.70
2022-12-27T07:11:08.787Z,5.95
2022-12-27T07:13:37.310Z,5.10
2022-12-27T07:16:05.897Z,5.05
2022-12-27T07:18:33.101Z,5.35
2022-12-27T07:21:03.243Z,4.65
2022-12-27T07:23:30.770Z,4.53
2022-12-27T07:26:05.087Z,4.53
2022-12-27T07:28:32.559Z,4.35
2022-12-27T07:30:59.616Z,4.70
2022-12-27T07:33:26.480Z,4.97
2022-12-27T07:36:00.589Z,4.78
2022-12-27T07:38:27.532Z,5.20
2022-12-27T07:40:55.060Z,5.07
2022-12-27T07:43:21.699Z,4.05
2022-12-27T07:45:48.465Z,4.43
2022-12-27T07:48:15.212Z,3.08
2022-12-27T07:50:41.920Z,3.17
2022-12-27T07:53:08.700Z,3.40
2022-12-27T07:55:35.365Z,3.10
2022-12-27T07:58:02.082Z,3.42
2022-12-27T08:00:30.016Z,3.75
2022-12-27T08:02:56.844Z,4.13
2022-12-27T08:05:27.647Z,6.07
2022-12-27T08:07:54.847Z,5.38
2022-12-27T08:10:21.523Z,5.07
2022-12-27T08:12:48.224Z,4.85
2022-12-27T08:15:14.962Z,5.40
2022-12-27T08:17:41.669Z,5.80
2022-12-27T08:20:13.636Z,6.38
2022-12-27T08:22:40.778Z,5.63
2022-12-27T08:25:08.060Z,6.38
2022-12-27T08:27:34.856Z,7.65
2022-12-27T08:30:02.089Z,7.95
2022-12-27T08:32:28.915Z,6.18
2022-12-27T08:35:06.858Z,6.63
2022-12-27T08:37:42.799Z,6.32
2022-12-27T08:40:09.900Z,6.97
2022-12-27T08:42:36.624Z,6.55
2022-12-27T08:45:03.499Z,6.28
2022-12-27T08:47:30.193Z,5.93
2022-12-27T08:49:57.031Z,7.30
2022-12-27T08:52:23.765Z,6.35
2022-12-27T08:54:51.640Z,7.30
2022-12-27T08:57:19.105Z,6.15
2022-12-27T08:59:45.756Z,5.70
2022-12-27T09:02:14.301Z,5.97
2022-12-27T09:04:41.081Z,6.28
2022-12-27T09:07:07.776Z,6.32
2022-12-27T09:09:34.747Z,7.15
2022-12-27T09:12:04.034Z,6.13
2022-12-27T09:14:35.054Z,6.30
2022-12-27T09:17:01.818Z,6.63
2022-12-27T09:19:28.515Z,6.10
2022-12-27T09:21:55.182Z,6.32
2022-12-27T09:24:22.575Z,6.47
2022-12-27T09:26:49.282Z,6.68
2022-12-27T09:29:16.272Z,6.07
2022-12-27T09:31:43.039Z,6.30
2022-12-27T09:34:12.882Z,6.20
2022-12-27T09:36:40.787Z,6.25
2022-12-27T09:39:07.659Z,6.20
2022-12-27T09:44:51.854Z,5.78
2022-12-27T09:47:30.504Z,5.65
2022-12-27T09:50:02.486Z,5.75
2022-12-27T09:52:41.261Z,5.45
2022-12-27T09:55:17.116Z,5.00
2022-12-27T09:57:45.821Z,5.30
2022-12-27T10:00:15.893Z,5.80
2022-12-27T10:02:46.746Z,5.88
2022-12-27T10:05:21.229Z,5.65
2022-12-27T10:08:07.202Z,6.07
2022-12-27T10:10:44.182Z,6.18
2022-12-27T10:13:29.496Z,4.97
2022-12-27T10:16:17.915Z,5.47
2022-12-27T10:19:04.281Z,4.85
2022-12-27T10:21:36.064Z,5.05
2022-12-27T10:24:26.080Z,5.97
2022-12-27T10:26:55.582Z,4.60
2022-12-27T10:29:24.675Z,4.50
2022-12-27T10:31:51.830Z,4.32
2022-12-27T10:34:24.523Z,4.75
2022-12-27T10:36:53.202Z,4.15
2022-12-27T10:39:30.784Z,4.63
2022-12-27T10:41:57.806Z,4.22
2022-12-27T10:44:24.555Z,4.43
2022-12-27T10:46:53.753Z,4.95
2022-12-27T10:49:23.992Z,5.00
2022-12-27T10:51:57.227Z,4.57
2022-12-27T10:54:26.941Z,4.45
2022-12-27T10:56:55.066Z,4.20
2022-12-27T10:59:27.377Z,6.55
2022-12-27T11:02:00.213Z,4.40
2022-12-27T11:04:28.747Z,4.25
2022-12-27T11:07:04.261Z,5.38
2022-12-27T11:09:33.548Z,4.72
2022-12-27T11:12:20.171Z,4.03
2022-12-27T11:14:59.562Z,4.00
2022-12-27T11:17:44.859Z,5.85
2022-12-27T11:20:12.144Z,4.28
2022-12-27T12:46:37.217Z,8.35
2022-12-27T12:49:10.037Z,9.18
2022-12-27T12:51:50.885Z,10.05
2022-12-27T12:54:42.261Z,9.95
2022-12-27T12:57:47.733Z,9.48
2022-12-27T13:00:32.334Z,9.88
2022-12-27T13:03:21.354Z,11.20
2022-12-27T13:06:03.109Z,10.25
2022-12-27T13:08:44.452Z,10.07
2022-12-27T13:11:35.864Z,10.98
2022-12-27T13:14:35.769Z,10.52
2022-12-27T13:17:24.207Z,10.85
2022-12-27T13:20:23.266Z,9.82
2022-12-27T13:22:49.976Z,10.25
2022-12-27T13:25:25.915Z,10.65
2022-12-27T13:28:17.735Z,9.18
2022-12-27T13:31:07.168Z,10.50
2022-12-27T13:33:46.874Z,10.20
2022-12-27T13:36:33.880Z,10.23
2022-12-27T13:39:26.022Z,10.63
2022-12-27T14:16:38.314Z,12.20
2022-12-27T14:19:14.507Z,9.88
2022-12-27T14:21:49.768Z,10.57
2022-12-27T14:25:07.230Z,10.75
2022-12-27T14:28:12.868Z,9.25
2022-12-27T14:31:11.189Z,9.02
2022-12-27T14:34:05.867Z,8.57
2022-12-27T14:36:56.949Z,9.88
2022-12-27T14:39:54.962Z,8.82
2022-12-27T14:42:54.631Z,9.00
2022-12-27T14:45:58.249Z,8.75
2022-12-27T14:48:42.912Z,8.98
2022-12-27T14:51:58.341Z,8.82
2022-12-27T14:54:44.872Z,8.73
2022-12-27T14:57:14.665Z,8.10
2022-12-27T15:00:16.669Z,7.90
2022-12-27T15:02:54.631Z,10.85
2022-12-27T15:05:43.375Z,8.32
2022-12-27T15:08:38.765Z,8.65
2022-12-27T15:11:43.081Z,7.28
2022-12-27T15:14:17.507Z,6.43
2022-12-27T15:17:20.184Z,7.22
2022-12-27T15:20:08.471Z,6.00
2022-12-27T15:23:02.069Z,6.80
2022-12-27T15:26:00.106Z,5.57
2022-12-27T15:28:48.404Z,5.95
2022-12-27T15:31:27.013Z,5.47
2022-12-27T15:34:05.680Z,6.35
2022-12-27T15:36:42.867Z,5.50
2022-12-27T15:39:39.352Z,6.00
2022-12-27T15:42:48.732Z,5.82
2022-12-27T15:45:36.785Z,4.82
2022-12-27T15:48:28.427Z,5.57
2022-12-27T15:51:10.352Z,5.40
2022-12-27T15:53:42.953Z,6.17
2022-12-27T15:59:24.858Z,5.57
2022-12-27T16:02:11.876Z,6.65
2022-12-27T16:04:47.762Z,5.90
2022-12-27T16:07:42.854Z,6.07
2022-12-27T16:10:31.718Z,6.88
2022-12-27T16:13:04.531Z,6.15
2022-12-27T16:15:52.708Z,4.88
2022-12-27T16:18:19.360Z,5.85
2022-12-27T16:21:01.331Z,5.97
2022-12-27T16:23:42.578Z,5.33
2022-12-27T16:26:19.932Z,5.50
2022-12-27T16:29:11.586Z,6.07
2022-12-27T16:31:45.753Z,5.57
2022-12-27T16:34:14.335Z,5.70
2022-12-27T16:36:46.612Z,5.95
2022-12-27T16:39:45.353Z,5.53
2022-12-27T16:42:12.375Z,5.10
2022-12-27T16:44:55.850Z,5.82
2022-12-27T16:47:55.176Z,6.40
2022-12-27T16:50:56.798Z,5.60
2022-12-27T16:53:50.641Z,6.45
2022-12-27T16:56:28.811Z,5.18
2022-12-27T16:58:56.351Z,5.18
2022-12-27T17:01:26.312Z,5.15
2022-12-27T17:03:54.765Z,5.25
2022-12-27T17:06:31.817Z,5.30
2022-12-27T17:09:09.295Z,5.70
2022-12-27T17:11:48.034Z,6.18
2022-12-27T17:14:29.841Z,5.50
2022-12-27T17:17:03.979Z,5.20
2022-12-27T17:19:38.355Z,5.53
2022-12-27T17:22:07.937Z,4.82
2022-12-27T17:24:34.818Z,5.15
2022-12-27T17:27:01.596Z,5.38
2022-12-27T17:29:46.253Z,5.13
2022-12-27T17:32:29.000Z,5.18
2022-12-27T17:35:19.979Z,4.95
2022-12-27T17:38:17.475Z,5.07
2022-12-27T17:41:15.668Z,5.18
2022-12-27T17:44:08.142Z,5.07
2022-12-27T17:47:15.642Z,5.53
2022-12-27T17:49:43.187Z,4.65
2022-12-27T17:52:35.156Z,6.22
2022-12-27T17:55:47.101Z,5.18
2022-12-27T17:58:19.074Z,5.13
2022-12-27T18:00:57.393Z,4.53
2022-12-27T18:03:30.194Z,5.35
2022-12-27T18:05:57.072Z,4.28
2022-12-27T18:08:29.468Z,4.75
2022-12-27T18:10:57.955Z,5.35
2022-12-27T18:13:27.317Z,4.40
2022-12-27T18:15:56.011Z,5.10
2022-12-27T18:18:31.672Z,4.93
2022-12-27T18:21:01.668Z,5.35
2022-12-27T18:23:28.480Z,4.47
2022-12-27T18:26:16.968Z,4.65
2022-12-27T18:28:43.903Z,4.97
2022-12-27T18:31:27.236Z,4.57
2022-12-27T18:33:58.639Z,4.05
2022-12-27T18:36:39.825Z,4.05
2022-12-27T18:39:21.376Z,4.13
2022-12-27T18:41:52.388Z,3.67
2022-12-27T18:44:27.177Z,4.15
2022-12-27T18:46:57.880Z,5.18
2022-12-27T18:49:36.776Z,4.38
2022-12-27T18:52:22.886Z,3.97
2022-12-27T18:54:49.646Z,4.72
2022-12-27T18:57:35.771Z,5.35
2022-12-27T19:00:17.377Z,3.65
2022-12-27T19:02:44.867Z,3.65
2022-12-27T19:05:20.712Z,4.30
2022-12-27T19:08:00.215Z,3.90
2022-12-27T19:10:29.323Z,3.95
2022-12-27T19:12:56.923Z,3.75
2022-12-27T19:15:42.409Z,3.63
2022-12-27T19:18:31.149Z,4.47
2022-12-27T19:21:00.876Z,4.07
2022-12-27T19:23:34.639Z,3.65
2022-12-27T19:26:25.916Z,4.65
2022-12-27T19:29:01.817Z,3.83
2022-12-27T19:31:29.103Z,3.47
2022-12-27T19:34:08.059Z,4.53
2022-12-27T19:36:40.184Z,3.80
2022-12-27T19:39:18.282Z,3.63
2022-12-27T19:41:45.490Z,4.50
2022-12-27T19:44:12.381Z,4.50
2022-12-27T19:46:39.204Z,4.25
2022-12-27T19:51:55.808Z,3.28
2022-12-27T19:54:24.810Z,4.05
2022-12-27T19:56:51.589Z,3.50
2022-12-27T19:59:21.095Z,3.53
2022-12-27T20:01:48.294Z,4.43
2022-12-27T20:04:16.106Z,3.38
2022-12-27T20:06:46.194Z,3.75
2022-12-27T20:09:15.928Z,3.33
2022-12-27T20:11:43.032Z,3.25
2022-12-27T20:14:09.755Z,3.65
2022-12-27T20:16:36.567Z,3.10
2022-12-27T20:19:03.631Z,3.80
2022-12-27T20:21:30.329Z,4.13
2022-12-27T20:23:57.112Z,2.97
2022-12-27T20:26:25.342Z,3.28
2022-12-27T20:28:52.783Z,3.10
2022-12-27T20:31:22.027Z,2.92
2022-12-27T20:33:53.796Z,2.90
2022-12-27T20:36:21.639Z,3.37
2022-12-27T20:38:48.368Z,3.10
2022-12-27T20:41:17.500Z,3.30
2022-12-27T20:43:44.736Z,3.20
2022-12-27T20:46:14.723Z,3.15
2022-12-27T20:48:44.119Z,3.40
2022-12-27T20:51:13.678Z,2.92
2022-12-27T20:53:40.773Z,3.45
2022-12-27T20:56:08.928Z,3.38
2022-12-27T20:58:36.197Z,3.65
2022-12-27T21:01:12.053Z,3.55
2022-12-27T21:03:39.711Z,4.13
2022-12-27T21:06:18.648Z,4.85
2022-12-27T21:08:50.601Z,2.80
2022-12-27T21:11:30.215Z,3.70
2022-12-27T21:13:57.047Z,3.42
2022-12-27T21:16:26.646Z,3.63
2022-12-27T21:18:54.536Z,3.88
2022-12-27T21:21:27.681Z,3.10
2022-12-27T21:23:56.585Z,3.35
2022-12-27T21:26:26.402Z,3.25
2022-12-27T21:28:53.232Z,3.60
2022-12-27T21:31:20.173Z,3.25
2022-12-27T21:33:47.771Z,4.00
2022-12-27T21:36:25.235Z,3.75
2022-12-27T21:38:52.904Z,3.50
2022-12-27T21:41:24.709Z,3.60
2022-12-27T21:43:52.153Z,3.77
2022-12-27T21:46:26.178Z,3.25
2022-12-27T21:49:01.766Z,3.50
2022-12-27T21:51:30.457Z,3.03
2022-12-27T21:53:57.587Z,3.50
2022-12-27T21:56:24.706Z,3.47
2022-12-27T21:58:51.801Z,3.35
2022-12-27T22:01:21.483Z,3.40
2022-12-27T22:03:50.404Z,3.95
2022-12-27T22:06:23.519Z,3.08
2022-12-27T22:08:52.613Z,3.15
2022-12-27T22:11:21.027Z,2.97
2022-12-27T22:13:49.066Z,3.15
2022-12-27T22:16:18.911Z,3.03
2022-12-27T22:18:45.997Z,3.47
2022-12-27T22:21:15.425Z,3.13
2022-12-27T22:23:44.290Z,3.50
2022-12-27T22:26:13.717Z,2.92
2022-12-27T22:28:41.259Z,3.75
2022-12-27T22:31:13.729Z,3.80
2022-12-27T22:33:40.672Z,4.18
2022-12-27T22:36:10.708Z,3.75
2022-12-27T22:38:37.731Z,3.30
2022-12-27T22:41:10.292Z,4.82
2022-12-27T22:46:12.230Z,3.65
2022-12-27T22:48:40.419Z,3.35
2022-12-27T22:51:16.217Z,3.67
2022-12-27T22:53:43.216Z,2.80
2022-12-27T22:56:17.574Z,3.63
2022-12-27T22:58:44.602Z,2.90
2022-12-27T23:01:17.091Z,3.05
2022-12-27T23:06:12.215Z,2.67
2022-12-27T23:08:39.926Z,2.90
2022-12-27T23:11:11.033Z,3.15
2022-12-27T23:13:38.045Z,2.78
2022-12-27T23:16:05.417Z,3.13
2022-12-27T23:18:32.334Z,3.83
2022-12-27T23:21:20.638Z,3.63
2022-12-27T23:23:46.176Z,3.33
2022-12-27T23:26:16.035Z,4.22
2022-12-27T23:28:45.786Z,3.00
2022-12-27T23:31:13.037Z,3.53
2022-12-27T23:33:41.406Z,2.72
2022-12-27T23:36:08.871Z,4.20
2022-12-27T23:38:35.761Z,3.13
2022-12-27T23:41:05.191Z,3.20
2022-12-27T23:43:54.927Z,2.92
2022-12-27T23:46:26.567Z,3.55
2022-12-27T23:48:53.845Z,2.80
2022-12-27T23:51:20.964Z,3.20
2022-12-27T23:53:47.765Z,3.35
2022-12-27T23:56:19.151Z,3.58
2022-12-27T23:58:46.765Z,3.80
